Kocelovice, Czech Republic
Current Conditions -  °F | °C
As of 8:00 PM on Thursday 30 Oct 2014 (Local Time) from LKLN Reporting Station
Overcast Overcast  
Wind Chill: 50°   Ceiling: 2600
Heat Index: 50°   Visibility: NA
Dew Point: 43°   Wind: 0mph
Humidity: 76%   Direction: NA
Pressure: 30.33"   Gusts: NA
Location:  49.47°N, 13.83°E
Report Text: LKLN 301800Z AUTO 00000KT //// OVC026 10/06 Q1027
Loading
Personal Weather Stations






























Interactive Weather Map
Tropical Storm Tracking
New forecast layout! Learn more

10-Day Weather Forecast

Advertisements
Track Severe Weather on mobile